Time;durP1;ratioP1;P1;durP2;ratioP2;P2;SDS_P1;SDS_P2;PMS_P1;PMS_P2;Temp;Humidity;BMP_temperature;BMP_pressure;BME280_temperature;BME280_humidity;BME280_pressure;Samples;Min_cycle;Max_cycle;Signal;HPM_P1;HPM_P2
2023/01/26 00:00:30;;;;;;;23.38;12.15;;;;;;;11.63;100.00;101501.84;2084840;28;20602;-74
2023/01/26 00:01:52;;;;;;;21.80;11.85;;;;;;;11.68;100.00;101496.69;2091378;28;20068;-74
2023/01/26 00:03:15;;;;;;;22.58;11.05;;;;;;;11.68;100.00;101491.41;2087612;28;20041;-74
2023/01/26 00:04:38;;;;;;;22.05;10.65;;;;;;;11.68;100.00;101492.31;2076338;28;20094;-74
2023/01/26 00:06:04;;;;;;;21.25;10.38;;;;;;;11.70;100.00;101495.84;2071459;28;20113;-74
2023/01/26 00:07:28;;;;;;;24.48;10.68;;;;;;;11.69;100.00;101488.78;2092974;28;20049;-74
2023/01/26 00:08:51;;;;;;;22.20;11.10;;;;;;;11.69;100.00;101490.53;2092443;28;20523;-74
2023/01/26 00:10:15;;;;;;;17.10;9.52;;;;;;;11.69;100.00;101488.78;2085381;28;20579;-74
2023/01/26 00:11:36;;;;;;;24.15;10.75;;;;;;;11.71;100.00;101499.41;2083665;28;20079;-74
2023/01/26 00:12:58;;;;;;;23.10;9.85;;;;;;;11.74;100.00;101492.47;2084662;28;20059;-74
2023/01/26 00:14:20;;;;;;;23.77;11.02;;;;;;;11.79;100.00;101482.88;2092838;28;20051;-74
2023/01/26 00:15:42;;;;;;;24.25;10.82;;;;;;;11.85;100.00;101484.75;2087580;28;20452;-74
2023/01/26 00:17:04;;;;;;;26.38;11.05;;;;;;;11.89;100.00;101490.16;2076585;28;20049;-74
2023/01/26 00:18:27;;;;;;;21.45;10.55;;;;;;;11.93;100.00;101494.66;2077057;28;20694;-74
2023/01/26 00:19:48;;;;;;;22.15;10.18;;;;;;;11.98;100.00;101492.13;2078507;28;20053;-75
2023/01/26 00:21:14;;;;;;;21.40;11.77;;;;;;;12.02;100.00;101490.41;2079928;28;20115;-75
2023/01/26 00:22:38;;;;;;;26.80;11.45;;;;;;;12.04;100.00;101494.88;2087186;28;20060;-74
2023/01/26 00:24:00;;;;;;;21.40;10.48;;;;;;;12.06;100.00;101492.28;2086123;28;20154;-74
2023/01/26 00:25:22;;;;;;;25.08;10.68;;;;;;;12.11;100.00;101498.56;2085187;28;20045;-74
2023/01/26 00:26:46;;;;;;;24.80;10.90;;;;;;;12.13;100.00;101496.84;2087038;28;20083;-74
2023/01/26 00:28:08;;;;;;;19.83;10.27;;;;;;;12.14;100.00;101496.84;2094890;28;20040;-75
2023/01/26 00:29:30;;;;;;;20.02;9.60;;;;;;;12.18;100.00;101496.06;2089085;28;20148;-74
2023/01/26 00:30:53;;;;;;;19.40;10.15;;;;;;;12.20;100.00;101494.38;2093881;28;20058;-74
2023/01/26 00:32:14;;;;;;;18.33;9.85;;;;;;;12.26;100.00;101501.53;2089505;28;20053;-74
2023/01/26 00:33:37;;;;;;;20.85;10.13;;;;;;;12.31;100.00;101499.88;2086593;28;20047;-74
2023/01/26 00:34:58;;;;;;;19.92;10.07;;;;;;;12.34;100.00;101492.84;2089400;28;20386;-74
2023/01/26 00:36:20;;;;;;;17.50;9.55;;;;;;;12.35;100.00;101494.66;2080150;28;20084;-75
2023/01/26 00:37:45;;;;;;;18.13;9.25;;;;;;;12.36;100.00;101495.53;2077917;28;20049;-74
2023/01/26 00:39:10;;;;;;;23.45;9.73;;;;;;;12.36;100.00;101499.09;2087165;28;20060;-74
2023/01/26 00:40:31;;;;;;;19.65;9.35;;;;;;;12.37;100.00;101497.34;2080803;28;20155;-74
2023/01/26 00:42:12;;;;;;;17.65;9.27;;;;;;;12.39;100.00;101492.97;2081596;28;20049;-75
2023/01/26 00:43:36;;;;;;;18.48;8.82;;;;;;;12.40;100.00;101491.22;2081104;28;20050;-74
2023/01/26 00:44:58;;;;;;;20.77;9.18;;;;;;;12.43;100.00;101494.81;2083712;28;20056;-75
2023/01/26 00:46:20;;;;;;;17.65;9.18;;;;;;;12.44;100.00;101486.00;2084043;28;20491;-74
2023/01/26 00:47:43;;;;;;;22.10;9.27;;;;;;;12.46;100.00;101483.41;2072942;28;20753;-74
2023/01/26 00:49:06;;;;;;;20.15;9.73;;;;;;;12.46;100.00;101468.41;2079257;28;20184;-74
2023/01/26 00:50:29;;;;;;;20.58;9.68;;;;;;;12.47;100.00;101469.31;2074912;28;20049;-75
2023/01/26 00:51:51;;;;;;;22.70;9.52;;;;;;;12.48;100.00;101463.09;2075770;28;20081;-74
2023/01/26 00:53:15;;;;;;;25.10;10.23;;;;;;;12.49;100.00;101464.91;2083905;28;20401;-74
2023/01/26 00:54:38;;;;;;;19.30;9.90;;;;;;;12.49;100.00;101455.19;2085423;28;20053;-74
2023/01/26 00:56:00;;;;;;;18.27;9.00;;;;;;;12.49;100.00;101449.91;2080358;28;20049;-74
2023/01/26 00:57:24;;;;;;;21.85;9.98;;;;;;;12.49;100.00;101444.59;2075811;28;20383;-75
2023/01/26 00:58:45;;;;;;;19.50;9.73;;;;;;;12.49;100.00;101439.31;2082751;28;20045;-74
2023/01/26 01:00:12;;;;;;;;;;;;;;;12.43;100.00;101428.59;2086462;28;20142;-75
2023/01/26 01:01:33;;;;;;;16.80;9.18;;;;;;;12.43;100.00;101431.25;2077390;28;19929;-74
2023/01/26 01:02:56;;;;;;;19.83;9.90;;;;;;;12.42;100.00;101424.16;2074821;28;20041;-74
2023/01/26 01:04:17;;;;;;;18.30;9.70;;;;;;;12.41;100.00;101425.03;2083755;28;20567;-74
2023/01/26 01:05:40;;;;;;;19.35;9.82;;;;;;;12.37;100.00;101420.56;2088380;28;20053;-74
2023/01/26 01:07:01;;;;;;;21.45;10.52;;;;;;;12.37;100.00;101417.91;2086303;28;20053;-74
2023/01/26 01:08:26;;;;;;;23.17;10.15;;;;;;;12.34;100.00;101413.44;2072524;28;20133;-74
2023/01/26 01:09:49;;;;;;;20.05;10.10;;;;;;;12.30;100.00;101414.25;2076070;28;20498;-74
2023/01/26 01:11:12;;;;;;;19.92;9.73;;;;;;;12.30;100.00;101406.31;2071859;28;20120;-74
2023/01/26 01:12:35;;;;;;;18.05;8.82;;;;;;;12.27;100.00;101408.88;2091975;28;20048;-74
2023/01/26 01:13:57;;;;;;;19.58;9.32;;;;;;;12.25;100.00;101404.44;2088865;28;20647;-74
2023/01/26 01:15:20;;;;;;;20.95;9.00;;;;;;;12.21;100.00;101392.88;2086261;28;20049;-74
2023/01/26 01:16:41;;;;;;;20.20;9.27;;;;;;;12.20;100.00;101385.84;2080292;28;20063;-74
2023/01/26 01:18:04;;;;;;;18.58;10.88;;;;;;;12.18;100.00;101384.00;2088795;28;20049;-75
2023/01/26 01:19:26;;;;;;;16.15;8.88;;;;;;;12.16;100.00;101388.38;2077861;28;20064;-74
2023/01/26 01:20:48;;;;;;;21.85;10.88;;;;;;;12.11;100.00;101398.88;2071042;28;20058;-75
2023/01/26 01:22:10;;;;;;;30.45;11.10;;;;;;;12.10;100.00;101393.56;2077689;28;20449;-74
2023/01/26 01:23:33;;;;;;;22.42;10.68;;;;;;;12.07;100.00;101394.41;2086068;28;20084;-74
2023/01/26 01:24:57;;;;;;;22.17;10.25;;;;;;;12.07;100.00;101391.75;2080250;28;20049;-74
2023/01/26 01:26:18;;;;;;;22.95;12.43;;;;;;;12.08;100.00;101390.00;2081956;28;20448;-74
2023/01/26 01:27:41;;;;;;;20.15;11.52;;;;;;;12.10;100.00;101377.66;2071217;28;20046;-74
2023/01/26 01:29:02;;;;;;;21.15;10.93;;;;;;;12.12;100.00;101382.16;2083613;28;20067;-74
2023/01/26 01:30:26;;;;;;;20.55;10.80;;;;;;;12.16;100.00;101389.25;2078938;28;20107;-74
2023/01/26 01:31:47;;;;;;;22.10;10.38;;;;;;;12.18;100.00;101384.00;2082076;28;20071;-75
2023/01/26 01:33:09;;;;;;;23.58;11.55;;;;;;;12.20;100.00;101383.19;2078199;28;20100;-74
2023/01/26 01:34:32;;;;;;;22.15;11.60;;;;;;;12.22;100.00;101377.91;2077274;28;20041;-74
2023/01/26 01:35:57;;;;;;;21.95;10.02;;;;;;;12.23;100.00;101377.94;2078113;28;20497;-75
2023/01/26 01:37:19;;;;;;;20.20;8.90;;;;;;;12.26;100.00;101377.13;2080607;28;20064;-74
2023/01/26 01:38:43;;;;;;;18.85;9.38;;;;;;;12.30;100.00;101371.88;2086234;28;20056;-74
2023/01/26 01:40:07;;;;;;;18.10;8.23;;;;;;;12.35;100.00;101372.84;2078380;28;20041;-74
2023/01/26 01:41:29;;;;;;;18.23;7.80;;;;;;;12.41;100.00;101372.06;2082205;28;20090;-74
2023/01/26 01:42:50;;;;;;;16.50;8.48;;;;;;;12.48;100.00;101379.25;2085956;28;20049;-74
2023/01/26 01:44:15;;;;;;;13.75;7.20;;;;;;;12.54;100.00;101374.06;2076806;28;20045;-74
2023/01/26 01:45:41;;;;;;;15.02;7.40;;;;;;;12.60;100.00;101378.63;2072499;28;20057;-74
2023/01/26 01:47:06;;;;;;;16.90;8.80;;;;;;;12.64;100.00;101368.09;2083475;28;20775;-74
2023/01/26 01:48:34;;;;;;;17.00;8.80;;;;;;;12.68;100.00;101367.25;2085963;28;20052;-74
2023/01/26 01:49:57;;;;;;;20.83;7.93;;;;;;;12.71;100.00;101358.47;2073535;28;20397;-75
2023/01/26 01:51:26;;;;;;;16.75;7.75;;;;;;;12.74;100.00;101359.41;2073598;28;20514;-74
2023/01/26 01:52:50;;;;;;;15.85;7.63;;;;;;;12.74;100.00;101354.09;2092932;28;20131;-74
2023/01/26 01:54:20;;;;;;;18.08;8.43;;;;;;;12.76;100.00;101349.75;2082657;28;20046;-74
2023/01/26 01:55:41;;;;;;;16.17;9.02;;;;;;;12.73;100.00;101339.06;2089399;28;20055;-74
2023/01/26 01:57:14;;;;;;;23.40;11.35;;;;;;;12.72;100.00;101347.91;2078406;28;20072;-75
2023/01/26 01:58:42;;;;;;;19.27;8.98;;;;;;;12.70;100.00;101336.41;2077344;28;20433;-74
2023/01/26 02:00:08;;;;;;;15.80;7.55;;;;;;;12.73;100.00;101338.22;2079671;28;20124;-74
2023/01/26 02:01:37;;;;;;;14.05;7.05;;;;;;;12.75;100.00;101341.75;2090321;28;20059;-74
2023/01/26 02:03:17;;;;;;;16.58;6.32;;;;;;;12.77;100.00;101353.28;2079484;28;20272;-74
2023/01/26 02:04:40;;;;;;;18.48;7.07;;;;;;;12.80;100.00;101365.69;2079423;28;20053;-74
2023/01/26 02:06:05;;;;;;;17.95;6.95;;;;;;;12.84;100.00;101368.41;2074230;28;20056;-74
2023/01/26 02:07:31;;;;;;;16.90;7.35;;;;;;;12.89;100.00;101360.53;2091341;28;20044;-74
2023/01/26 02:08:54;;;;;;;16.38;7.75;;;;;;;12.92;100.00;101363.25;2081266;28;20102;-75
2023/01/26 02:10:20;;;;;;;15.85;8.23;;;;;;;12.97;100.00;101367.75;2093341;28;20135;-74
2023/01/26 02:11:46;;;;;;;19.10;8.13;;;;;;;12.99;100.00;101367.78;2077614;28;20132;-73
2023/01/26 02:13:11;;;;;;;15.68;7.22;;;;;;;13.00;100.00;101372.19;2072143;28;20054;-74
2023/01/26 02:14:33;;;;;;;15.77;8.25;;;;;;;13.03;100.00;101367.81;2077595;28;20095;-74
2023/01/26 02:15:58;;;;;;;14.60;7.45;;;;;;;13.04;100.00;101374.03;2083166;28;20060;-74
2023/01/26 02:17:20;;;;;;;18.95;8.23;;;;;;;13.06;100.00;101372.31;2102587;28;20130;-74
2023/01/26 02:18:44;;;;;;;15.10;7.93;;;;;;;13.07;100.00;101363.44;2082788;28;20139;-74
2023/01/26 02:20:14;;;;;;;17.50;8.77;;;;;;;13.06;100.00;101370.50;2077747;28;20115;-74
2023/01/26 02:21:37;;;;;;;15.38;8.13;;;;;;;13.07;100.00;101351.09;2092687;28;20079;-75
2023/01/26 02:23:03;;;;;;;14.77;7.15;;;;;;;13.09;100.00;101356.41;2079984;28;20480;-74
2023/01/26 02:24:33;;;;;;;16.80;8.68;;;;;;;13.12;100.00;101344.16;2075363;28;20377;-74
2023/01/26 02:26:20;;;;;;;16.30;7.10;;;;;;;13.12;100.00;101345.88;2076992;28;20455;-74
2023/01/26 02:27:43;;;;;;;15.25;7.20;;;;;;;13.12;100.00;101343.22;2080386;28;20045;-74
2023/01/26 02:29:09;;;;;;;17.05;7.28;;;;;;;13.13;100.00;101337.97;2082870;28;20131;-74
2023/01/26 02:30:35;;;;;;;13.65;7.22;;;;;;;13.13;100.00;101337.06;2088152;28;20139;-74
2023/01/26 02:31:57;;;;;;;14.40;7.68;;;;;;;13.14;100.00;101328.25;2084522;28;20045;-74
2023/01/26 02:33:20;;;;;;;15.82;7.78;;;;;;;13.15;100.00;101330.03;2080113;28;20057;-74
2023/01/26 02:34:43;;;;;;;19.10;7.80;;;;;;;13.14;100.00;101331.78;2077644;28;20037;-74
2023/01/26 02:36:11;;;;;;;14.18;6.88;;;;;;;13.17;100.00;101328.31;2083646;28;20052;-74
2023/01/26 02:37:32;;;;;;;18.63;7.85;;;;;;;13.16;100.00;101319.47;2094103;28;20052;-75
2023/01/26 02:39:03;;;;;;;20.15;7.63;;;;;;;13.17;100.00;101317.69;2080031;28;20060;-75
2023/01/26 02:40:34;;;;;;;15.55;7.00;;;;;;;13.18;100.00;101316.84;2085674;28;20071;-74
2023/01/26 02:43:37;;;;;;;13.80;7.32;;;;;;;13.20;100.00;101328.34;2074114;28;20046;-74
2023/01/26 02:45:00;;;;;;;17.52;7.65;;;;;;;13.18;100.00;101330.09;2084865;28;20049;-74
2023/01/26 02:46:25;;;;;;;15.18;7.20;;;;;;;13.16;100.00;101337.13;2077563;28;20029;-74
2023/01/26 02:47:47;;;;;;;13.80;7.65;;;;;;;13.12;100.00;101335.28;2076652;28;20123;-74
2023/01/26 02:50:48;;;;;;;17.10;8.10;;;;;;;13.07;100.00;101340.50;2080082;28;20145;-74
2023/01/26 02:52:11;;;;;;;19.42;7.60;;;;;;;13.08;100.00;101341.38;2074012;28;20048;-75
2023/01/26 02:53:37;;;;;;;17.65;9.60;;;;;;;13.09;100.00;101345.81;2082506;28;20160;-74
2023/01/26 02:56:38;;;;;;;16.30;7.72;;;;;;;13.10;100.00;101348.50;2078156;28;20572;-74
2023/01/26 02:58:04;;;;;;;16.73;8.23;;;;;;;13.12;100.00;101348.53;2073437;28;20078;-74
2023/01/26 02:59:28;;;;;;;15.23;7.75;;;;;;;13.12;100.00;101335.28;2084367;28;20048;-74
2023/01/26 03:00:50;;;;;;;14.15;6.97;;;;;;;13.12;100.00;101336.22;2076947;28;20056;-74
2023/01/26 03:02:11;;;;;;;15.20;7.07;;;;;;;13.11;100.00;101331.72;2081627;28;20045;-74
2023/01/26 03:03:43;;;;;;;15.05;8.50;;;;;;;13.11;100.00;101330.84;2084085;28;20496;-74
2023/01/26 03:05:05;;;;;;;14.45;7.75;;;;;;;13.09;100.00;101325.50;2081704;28;20489;-75
2023/01/26 03:06:28;;;;;;;15.90;8.32;;;;;;;13.08;100.00;101312.22;2076397;28;20049;-74
2023/01/26 03:07:53;;;;;;;14.82;7.85;;;;;;;13.08;100.00;101312.22;2071797;28;20050;-74
2023/01/26 03:09:16;;;;;;;16.65;7.50;;;;;;;13.09;100.00;101300.75;2070419;28;20596;-75
2023/01/26 03:10:40;;;;;;;14.88;7.82;;;;;;;13.12;100.00;101296.44;2082234;28;20048;-74
2023/01/26 03:12:01;;;;;;;16.23;7.60;;;;;;;13.14;100.00;101293.78;2073676;28;20491;-74
2023/01/26 03:13:26;;;;;;;17.00;7.22;;;;;;;13.16;100.00;101289.41;2077513;28;20041;-74
2023/01/26 03:15:33;;;;;;;15.23;7.72;;;;;;;13.20;100.00;101290.31;2075527;28;20498;-75
2023/01/26 03:16:31;;;;;;;13.63;7.63;;;;;;;13.21;100.00;101284.16;2078801;28;20107;-74
2023/01/26 03:27:25;;;;;;;15.57;7.03;;;;;;;13.21;100.00;101287.69;2083130;28;20040;-74
2023/01/26 03:28:14;;;;;;;18.70;8.50;;;;;;;13.13;100.00;101262.84;2087407;28;20100;-75
2023/01/26 03:29:38;;;;;;;13.35;6.97;;;;;;;13.12;100.00;101256.69;2076393;28;20057;-75
2023/01/26 03:31:01;;;;;;;16.60;8.32;;;;;;;13.13;100.00;101257.53;2091260;28;20132;-74
2023/01/26 03:32:25;;;;;;;14.07;7.25;;;;;;;13.11;100.00;101257.50;2079859;28;20544;-74
2023/01/26 03:33:48;;;;;;;13.68;7.80;;;;;;;13.10;100.00;101247.78;2088490;28;20048;-74
2023/01/26 03:35:14;;;;;;;13.85;7.10;;;;;;;13.11;100.00;101248.66;2079768;28;20704;-74
2023/01/26 03:36:36;;;;;;;10.65;5.22;;;;;;;13.09;100.00;101245.09;2075652;28;20037;-74
2023/01/26 03:38:03;;;;;;;12.32;7.40;;;;;;;13.12;100.00;101231.91;2074563;28;20053;-74
2023/01/26 03:56:34;;;;;;;14.65;7.13;;;;;;;13.32;100.00;101211.84;2080915;28;20042;-74
2023/01/26 03:58:08;;;;;;;15.45;6.90;;;;;;;13.34;100.00;101209.19;2079660;28;20430;-75
2023/01/26 03:59:39;;;;;;;14.60;7.07;;;;;;;13.36;100.00;101205.69;2077392;28;20038;-74
2023/01/26 04:01:09;;;;;;;15.30;6.88;;;;;;;13.38;100.00;101213.69;2072976;28;20068;-74
2023/01/26 04:09:11;;;;;;;15.65;7.07;;;;;;;13.34;100.00;101201.25;2074374;28;20058;-74
2023/01/26 04:10:33;;;;;;;15.07;7.07;;;;;;;13.34;100.00;101196.81;2092714;28;20040;-75
2023/01/26 04:11:59;;;;;;;15.05;7.50;;;;;;;13.34;100.00;101199.47;2078270;28;20041;-75
2023/01/26 04:21:51;;;;;;;17.63;6.60;;;;;;;13.32;100.00;101241.03;2096214;28;20045;-74
2023/01/26 04:23:18;;;;;;;18.23;8.05;;;;;;;13.32;100.00;101246.31;2089441;28;20053;-74
2023/01/26 04:24:41;;;;;;;16.90;8.00;;;;;;;13.32;100.00;101262.25;2076027;28;20058;-74
2023/01/26 04:26:02;;;;;;;19.48;8.35;;;;;;;13.31;100.00;101267.50;2075784;28;20045;-74
2023/01/26 04:27:24;;;;;;;18.60;9.75;;;;;;;13.31;100.00;101270.16;2092344;28;20049;-74
2023/01/26 04:28:46;;;;;;;19.90;10.40;;;;;;;13.30;100.00;101265.72;2081252;28;20045;-75
2023/01/26 04:30:10;;;;;;;15.85;9.80;;;;;;;13.31;100.00;101264.88;2079606;28;20044;-74
2023/01/26 04:31:33;;;;;;;18.02;9.35;;;;;;;13.30;100.00;101277.22;2092674;28;20401;-74
2023/01/26 04:32:58;;;;;;;15.05;9.20;;;;;;;13.31;100.00;101275.47;2089458;28;20118;-74
2023/01/26 04:34:20;;;;;;;16.48;8.10;;;;;;;13.28;100.00;101271.00;2086815;28;20615;-74
2023/01/26 04:35:43;;;;;;;;;;;;;;;13.23;100.00;101269.16;2094295;28;20056;-74
2023/01/26 04:37:05;;;;;;;17.98;8.52;;;;;;;13.24;100.00;101268.31;2080480;28;20368;-74
2023/01/26 04:38:37;;;;;;;14.25;8.00;;;;;;;13.25;100.00;101275.38;2086168;28;20517;-74
2023/01/26 04:40:00;;;;;;;19.08;9.10;;;;;;;13.26;100.00;101263.91;2090612;28;20049;-74
2023/01/26 04:41:24;;;;;;;16.98;7.30;;;;;;;13.26;100.00;101258.63;2075495;28;20057;-74
2023/01/26 04:42:53;;;;;;;18.85;9.25;;;;;;;13.28;100.00;101262.16;2071271;28;20133;-74
2023/01/26 04:44:15;;;;;;;15.48;8.02;;;;;;;13.30;100.00;101269.28;2078864;28;20064;-75
2023/01/26 04:45:38;;;;;;;13.65;6.38;;;;;;;13.31;100.00;101255.16;2086945;28;20049;-74
2023/01/26 04:47:00;;;;;;;16.92;8.77;;;;;;;13.35;100.00;101248.09;2082837;28;20106;-74
2023/01/26 04:48:25;;;;;;;16.38;7.93;;;;;;;13.40;100.00;101251.69;2071022;28;20046;-74
2023/01/26 04:49:47;;;;;;;13.80;7.32;;;;;;;13.43;100.00;101249.09;2083134;28;20040;-74
2023/01/26 04:51:16;;;;;;;16.08;8.35;;;;;;;13.47;100.00;101254.44;2078836;28;20410;-75
2023/01/26 04:52:38;;;;;;;15.75;8.10;;;;;;;13.49;100.00;101258.00;2076116;28;20045;-74
2023/01/26 04:54:01;;;;;;;13.27;6.72;;;;;;;13.50;100.00;101243.88;2077188;28;20041;-74
2023/01/26 04:55:24;;;;;;;15.63;7.70;;;;;;;13.52;100.00;101247.41;2075763;28;20140;-74
2023/01/26 04:56:46;;;;;;;18.20;8.13;;;;;;;13.53;100.00;101249.19;2076115;28;20093;-74
2023/01/26 04:58:09;;;;;;;14.88;8.52;;;;;;;13.56;100.00;101253.66;2075706;28;20045;-74
2023/01/26 04:59:32;;;;;;;15.52;7.75;;;;;;;13.57;100.00;101250.16;2076627;28;20096;-74
2023/01/26 05:00:58;;;;;;;18.23;7.28;;;;;;;13.57;100.00;101251.03;2081010;28;20060;-74
2023/01/26 05:02:20;;;;;;;17.38;8.13;;;;;;;13.62;100.00;101263.44;2086054;28;20052;-74
2023/01/26 05:03:45;;;;;;;15.05;7.07;;;;;;;13.62;100.00;101263.44;2078055;28;20050;-74
2023/01/26 05:05:09;;;;;;;13.20;6.30;;;;;;;13.61;100.00;101262.56;2080058;28;20045;-74
2023/01/26 05:06:32;;;;;;;16.40;7.90;;;;;;;13.63;100.00;101267.88;2077730;28;20088;-74
2023/01/26 05:07:54;;;;;;;15.40;8.07;;;;;;;13.64;100.00;101262.59;2078042;28;20091;-74
2023/01/26 05:09:17;;;;;;;14.73;7.97;;;;;;;13.65;100.00;101258.19;2086849;28;20052;-74
2023/01/26 05:10:40;;;;;;;16.38;7.30;;;;;;;13.64;100.00;101259.97;2077288;28;20180;-75
2023/01/26 05:12:33;;;;;;;13.00;7.00;;;;;;;13.63;100.00;101251.97;2079405;28;20053;-74
2023/01/26 05:14:14;;;;;;;14.63;7.55;;;;;;;13.61;100.00;101262.56;2087716;28;20061;-75
2023/01/26 05:16:03;;;;;;;13.20;7.40;;;;;;;13.60;100.00;101258.13;2074170;28;20045;-74
2023/01/26 05:18:03;;;;;;;15.80;7.80;;;;;;;13.61;100.00;101265.22;2063835;28;20502;-74
2023/01/26 05:19:44;;;;;;;16.52;8.00;;;;;;;13.63;100.00;101274.09;2077226;28;20053;-74
2023/01/26 05:21:33;;;;;;;15.20;8.05;;;;;;;13.64;100.00;101280.28;2081718;28;20393;-75
2023/01/26 05:22:55;;;;;;;16.17;7.97;;;;;;;13.66;100.00;101283.81;2085856;28;20053;-74
2023/01/26 05:24:35;;;;;;;14.65;7.13;;;;;;;13.67;100.00;101259.06;2084050;28;20067;-74
2023/01/26 05:26:02;;;;;;;13.90;6.82;;;;;;;13.71;100.00;101271.53;2083307;28;20619;-74
2023/01/26 05:27:24;;;;;;;18.40;7.95;;;;;;;13.73;100.00;101265.34;2078479;28;20057;-74
2023/01/26 05:28:50;;;;;;;19.05;7.78;;;;;;;13.76;100.00;101272.47;2079487;28;20053;-74
2023/01/26 05:30:12;;;;;;;16.58;6.60;;;;;;;13.78;100.00;101270.72;2076519;28;20049;-74
2023/01/26 05:31:34;;;;;;;;;;;;;;;13.76;100.00;101269.81;2083263;28;20041;-74
2023/01/26 05:33:00;;;;;;;16.08;7.30;;;;;;;13.79;100.00;101264.50;2088594;28;19974;-74
2023/01/26 05:34:23;;;;;;;11.73;6.35;;;;;;;13.81;100.00;101266.31;2081496;28;20052;-74
2023/01/26 05:35:47;;;;;;;16.05;7.28;;;;;;;13.84;100.00;101276.09;2077966;28;20136;-74
2023/01/26 05:37:08;;;;;;;16.10;7.75;;;;;;;13.85;100.00;101288.47;2078548;28;20099;-74
2023/01/26 05:38:31;;;;;;;17.77;7.75;;;;;;;13.87;100.00;101292.03;2075877;28;20115;-74
2023/01/26 05:39:53;;;;;;;18.17;7.45;;;;;;;13.87;100.00;101287.63;2071275;28;20050;-74
2023/01/26 05:41:16;;;;;;;20.25;9.25;;;;;;;13.89;100.00;101284.97;2078894;28;20045;-74
2023/01/26 05:42:53;;;;;;;19.20;9.30;;;;;;;13.91;100.00;101277.94;2078971;28;20144;-74
2023/01/26 05:44:34;;;;;;;16.70;10.40;;;;;;;13.92;100.00;101280.59;2086117;28;20045;-75
2023/01/26 05:46:01;;;;;;;17.55;9.07;;;;;;;13.95;100.00;101269.13;2080995;28;20065;-75
2023/01/26 05:47:24;;;;;;;15.68;7.53;;;;;;;13.96;100.00;101274.44;2075994;28;20057;-74
2023/01/26 05:48:46;;;;;;;17.17;7.93;;;;;;;13.98;100.00;101277.09;2070665;28;20128;-74
2023/01/26 05:50:09;;;;;;;19.15;9.02;;;;;;;14.02;100.00;101288.66;2084646;28;20098;-74
2023/01/26 05:51:33;;;;;;;21.05;9.55;;;;;;;14.04;100.00;101277.19;2072202;28;20037;-74
2023/01/26 05:52:55;;;;;;;19.25;9.18;;;;;;;14.08;100.00;101270.13;2075099;28;20102;-74
2023/01/26 05:54:18;;;;;;;17.05;8.05;;;;;;;14.12;100.00;101267.50;2075933;28;20045;-74
2023/01/26 05:55:41;;;;;;;20.27;9.50;;;;;;;14.16;100.00;101271.97;2073935;28;20109;-74
2023/01/26 05:57:02;;;;;;;13.65;8.30;;;;;;;14.19;100.00;101266.69;2069764;28;20103;-74
2023/01/26 05:58:27;;;;;;;14.23;7.10;;;;;;;14.24;100.00;101258.78;2085223;28;20393;-74
2023/01/26 05:59:48;;;;;;;16.25;6.68;;;;;;;14.28;100.00;101265.88;2084640;28;20700;-74
2023/01/26 06:01:12;;;;;;;13.43;6.30;;;;;;;14.31;100.00;101261.47;2081978;28;20759;-75
2023/01/26 06:02:43;;;;;;;11.45;5.40;;;;;;;14.38;100.00;101250.94;2085726;28;20119;-74
2023/01/26 06:04:07;;;;;;;11.63;6.10;;;;;;;14.45;100.00;101266.94;2081458;28;20045;-74
2023/01/26 06:05:39;;;;;;;16.27;6.63;;;;;;;14.49;100.00;101259.91;2092357;28;20105;-74
2023/01/26 06:07:18;;;;;;;11.50;5.88;;;;;;;14.55;100.00;101251.97;2092112;28;20377;-74
2023/01/26 06:08:45;;;;;;;14.60;6.57;;;;;;;14.58;100.00;101246.66;2088401;28;20494;-74
2023/01/26 06:10:26;;;;;;;12.93;6.80;;;;;;;14.62;100.00;101238.75;2086141;28;20546;-74
2023/01/26 06:12:16;;;;;;;11.77;5.82;;;;;;;14.70;100.00;101236.13;2087921;28;20127;-74
2023/01/26 06:14:05;;;;;;;12.80;7.15;;;;;;;14.80;100.00;101239.72;2070295;28;20092;-74
2023/01/26 06:15:26;;;;;;;10.40;5.00;;;;;;;14.91;100.00;101243.31;2081964;28;20049;-74
2023/01/26 06:16:51;;;;;;;13.05;5.95;;;;;;;15.00;100.00;101230.97;2085796;28;20048;-74
2023/01/26 06:18:14;;;;;;;11.18;5.10;;;;;;;15.11;100.00;101223.94;2074520;28;20696;-75
2023/01/26 06:19:43;;;;;;;12.90;4.85;;;;;;;15.23;100.00;101225.75;2085236;28;20713;-74
2023/01/26 06:21:06;;;;;;;10.73;4.25;;;;;;;15.35;100.00;101238.22;2072201;28;20442;-74
2023/01/26 06:22:30;;;;;;;13.57;5.03;;;;;;;15.46;100.00;101237.38;2090298;28;20143;-74
2023/01/26 06:23:53;;;;;;;10.27;4.70;;;;;;;15.55;100.00;101241.88;2080350;28;20049;-75
2023/01/26 06:25:16;;;;;;;12.25;5.30;;;;;;;15.65;100.00;101245.44;2090090;28;20127;-75
2023/01/26 06:26:39;;;;;;;10.02;4.07;;;;;;;15.76;100.00;101247.25;2080043;28;20044;-74
2023/01/26 06:28:02;;;;;;;11.27;4.55;;;;;;;15.89;100.00;101232.16;2083624;28;20056;-75
2023/01/26 06:29:25;;;;;;;11.68;4.85;;;;;;;16.02;100.00;101233.06;2087951;28;20408;-74
2023/01/26 06:30:47;;;;;;;9.27;4.10;;;;;;;16.13;100.00;101239.31;2078607;28;20041;-75
2023/01/26 06:32:11;;;;;;;12.52;4.03;;;;;;;16.26;100.00;101238.44;2075058;28;20053;-75
2023/01/26 06:33:35;;;;;;;13.82;4.93;;;;;;;16.38;100.00;101234.88;2085810;28;20040;-75
2023/01/26 06:34:58;;;;;;;11.30;4.00;;;;;;;16.47;100.00;101229.53;2086133;28;20457;-75
2023/01/26 06:36:22;;;;;;;11.00;4.38;;;;;;;16.55;100.00;101223.28;2085601;28;20060;-74
2023/01/26 06:37:48;;;;;;;14.00;4.32;;;;;;;16.64;100.00;101217.09;2083383;28;20048;-74
2023/01/26 06:39:12;;;;;;;10.98;3.75;;;;;;;16.69;100.00;101212.66;2081196;28;20501;-75
2023/01/26 06:40:35;;;;;;;12.98;4.13;;;;;;;16.73;100.00;101206.44;2073988;28;20049;-74
2023/01/26 06:41:59;;;;;;;9.25;4.10;;;;;;;16.81;100.00;101219.72;2073663;28;20046;-75
2023/01/26 06:43:21;;;;;;;11.23;4.22;;;;;;;16.89;100.00;101223.25;2082243;28;20052;-74
2023/01/26 06:44:43;;;;;;;10.18;4.15;;;;;;;16.96;100.00;101235.69;2069444;28;20050;-75
2023/01/26 06:46:07;;;;;;;10.13;3.90;;;;;;;17.01;100.00;101231.22;2074572;28;20041;-75
2023/01/26 06:47:30;;;;;;;11.68;3.60;;;;;;;17.06;100.00;101240.13;2076314;28;20052;-74
2023/01/26 06:48:52;;;;;;;13.82;3.92;;;;;;;17.13;100.00;101233.88;2089947;28;20078;-74
2023/01/26 06:50:18;;;;;;;11.52;3.88;;;;;;;17.26;100.00;101226.72;2069466;28;20053;-74
2023/01/26 06:51:47;;;;;;;10.18;4.43;;;;;;;17.37;100.00;101235.53;2069223;28;20141;-75
2023/01/26 06:53:29;;;;;;;12.15;4.30;;;;;;;17.51;100.00;101233.69;2084911;28;20560;-74
2023/01/26 06:55:19;;;;;;;12.68;4.18;;;;;;;17.65;100.00;101234.53;2088220;28;20064;-75
2023/01/26 06:56:54;;;;;;;11.43;4.60;;;;;;;17.78;100.00;101233.56;2076168;28;20072;-75
2023/01/26 06:58:37;;;;;;;;;;;;;;;17.85;100.00;101237.94;2066342;28;20587;-74
2023/01/26 07:00:05;;;;;;;12.05;4.32;;;;;;;18.00;100.00;101234.28;2079593;28;20315;-74
2023/01/26 07:01:51;;;;;;;11.88;3.55;;;;;;;18.15;100.00;101218.16;2083413;28;20524;-74
2023/01/26 07:03:13;;;;;;;9.95;3.30;;;;;;;18.28;100.00;101213.59;2080155;28;20049;-74
2023/01/26 07:04:35;;;;;;;14.90;3.60;;;;;;;18.41;100.00;101225.06;2090339;28;20055;-75
2023/01/26 07:05:58;;;;;;;14.80;3.53;;;;;;;18.52;100.00;101215.13;2085048;28;20457;-74
2023/01/26 07:07:20;;;;;;;11.98;3.40;;;;;;;18.58;100.00;101223.13;2085618;28;20432;-74
2023/01/26 07:08:44;;;;;;;12.05;3.88;;;;;;;18.60;100.00;101213.31;2079730;28;20041;-74
2023/01/26 07:10:07;;;;;;;7.88;2.97;;;;;;;18.62;100.00;101216.88;2081511;28;20048;-74
2023/01/26 07:11:29;;;;;;;12.48;3.53;;;;;;;18.67;100.00;101223.94;2083383;28;20048;-74
2023/01/26 07:12:51;;;;;;;9.50;3.10;;;;;;;18.73;100.00;101217.63;2075771;28;20580;-74
2023/01/26 07:14:14;;;;;;;9.77;3.00;;;;;;;18.77;100.00;101213.16;2073962;28;20127;-74